createdAt,value
2022-12-07T00:01:53.444Z,57.80
2022-12-07T00:04:27.307Z,60.00
2022-12-07T00:06:57.952Z,57.80
2022-12-07T00:09:28.918Z,56.90
2022-12-07T00:11:59.152Z,57.50
2022-12-07T00:14:29.908Z,56.00
2022-12-07T00:17:00.641Z,57.60
2022-12-07T00:19:31.641Z,56.50
2022-12-07T00:22:03.644Z,56.80
2022-12-07T00:24:34.842Z,54.60
2022-12-07T00:27:07.627Z,55.40
2022-12-07T00:29:39.605Z,53.60
2022-12-07T00:32:09.868Z,55.90
2022-12-07T00:34:40.251Z,54.60
2022-12-07T00:37:12.005Z,51.70
2022-12-07T00:39:43.574Z,51.00
2022-12-07T00:42:14.204Z,53.00
2022-12-07T00:44:48.846Z,54.40
2022-12-07T00:47:20.511Z,52.60
2022-12-07T00:49:51.252Z,52.80
2022-12-07T00:52:21.957Z,54.50
2022-12-07T00:54:52.633Z,54.50
2022-12-07T00:57:23.288Z,55.50
2022-12-07T00:59:59.351Z,54.90
2022-12-07T01:02:34.706Z,52.50
2022-12-07T01:05:07.829Z,52.30
2022-12-07T01:07:38.345Z,52.80
2022-12-07T01:10:09.976Z,52.20
2022-12-07T01:12:40.277Z,53.00
2022-12-07T01:15:11.654Z,51.60
2022-12-07T01:17:42.378Z,51.10
2022-12-07T01:20:13.573Z,51.00
2022-12-07T01:22:45.878Z,51.30
2022-12-07T01:25:16.936Z,52.60
2022-12-07T01:27:47.658Z,51.30
2022-12-07T01:30:18.794Z,51.30
2022-12-07T01:32:49.519Z,51.20
2022-12-07T01:35:20.227Z,51.60
2022-12-07T01:37:50.974Z,49.30
2022-12-07T01:40:21.857Z,51.30
2022-12-07T01:42:52.593Z,49.60
2022-12-07T01:45:32.362Z,51.40
2022-12-07T01:48:03.245Z,50.00
2022-12-07T01:50:36.961Z,51.10
2022-12-07T01:53:10.682Z,50.80
2022-12-07T01:55:45.892Z,50.50
2022-12-07T01:58:18.501Z,51.60
2022-12-07T02:00:50.186Z,51.30
2022-12-07T02:03:40.271Z,51.90
2022-12-07T02:06:12.435Z,52.70
2022-12-07T02:08:44.817Z,53.80
2022-12-07T02:11:15.584Z,53.20
2022-12-07T02:13:48.808Z,53.30
2022-12-07T02:16:26.684Z,51.50
2022-12-07T02:19:18.884Z,52.50
2022-12-07T02:22:25.514Z,52.90
2022-12-07T02:25:28.892Z,51.20
2022-12-07T02:28:14.787Z,52.80
2022-12-07T02:30:51.070Z,51.70
2022-12-07T02:33:35.614Z,52.20
2022-12-07T02:36:24.999Z,51.30
2022-12-07T02:39:12.510Z,51.20
2022-12-07T02:41:55.725Z,51.90
2022-12-07T02:44:30.657Z,52.40
2022-12-07T02:47:11.179Z,52.40
2022-12-07T02:49:43.617Z,51.60
2022-12-07T02:52:13.984Z,52.70
2022-12-07T02:54:46.765Z,53.70
2022-12-07T02:57:42.296Z,50.70
2022-12-07T03:00:18.976Z,52.40
2022-12-07T03:03:02.708Z,52.30
2022-12-07T03:06:04.258Z,52.40
2022-12-07T03:09:23.623Z,53.60
2022-12-07T03:12:14.368Z,51.50
2022-12-07T03:15:11.579Z,52.80
2022-12-07T03:17:45.932Z,54.60
2022-12-07T03:20:24.220Z,54.80
2022-12-07T03:22:58.340Z,55.30
2022-12-07T03:25:30.845Z,56.10
2022-12-07T03:28:09.431Z,54.50
2022-12-07T03:30:56.302Z,56.20
2022-12-07T03:33:38.219Z,55.10
2022-12-07T03:36:14.486Z,55.70
2022-12-07T03:39:03.387Z,54.90
2022-12-07T03:41:45.184Z,56.30
2022-12-07T03:44:18.282Z,57.10
2022-12-07T03:46:55.866Z,53.90
2022-12-07T03:49:30.647Z,53.20
2022-12-07T03:52:22.510Z,53.90
2022-12-07T03:55:02.617Z,53.50
2022-12-07T03:57:39.653Z,53.00
2022-12-07T04:00:11.401Z,53.70
2022-12-07T04:02:42.220Z,53.80
2022-12-07T04:05:13.586Z,53.70
2022-12-07T04:07:44.675Z,52.60
2022-12-07T04:10:16.173Z,52.90
2022-12-07T04:12:46.915Z,52.90
2022-12-07T04:15:18.739Z,53.10
2022-12-07T04:17:49.580Z,54.10
2022-12-07T04:20:20.840Z,54.30
2022-12-07T04:22:51.344Z,56.20
2022-12-07T04:25:21.670Z,54.20
2022-12-07T04:27:52.483Z,54.30
2022-12-07T04:30:22.958Z,54.90
2022-12-07T04:32:53.263Z,54.70
2022-12-07T04:35:23.831Z,53.50
2022-12-07T04:37:54.065Z,53.80
2022-12-07T04:40:24.419Z,54.20
2022-12-07T04:42:54.698Z,55.90
2022-12-07T04:45:25.214Z,56.00
2022-12-07T04:47:55.532Z,56.40
2022-12-07T04:50:30.587Z,56.90
2022-12-07T04:53:09.307Z,57.00
2022-12-07T04:55:41.526Z,55.40
2022-12-07T04:58:13.037Z,56.30
2022-12-07T05:00:45.849Z,55.10
2022-12-07T05:03:16.125Z,56.50
2022-12-07T05:05:54.804Z,56.30
2022-12-07T05:08:31.580Z,55.80
2022-12-07T05:11:02.405Z,55.50
2022-12-07T05:13:32.680Z,56.00
2022-12-07T05:16:03.017Z,55.30
2022-12-07T05:18:33.344Z,56.20
2022-12-07T05:21:03.578Z,56.00
2022-12-07T05:23:34.211Z,55.80
2022-12-07T05:26:04.519Z,55.30
2022-12-07T05:28:34.731Z,55.40
2022-12-07T05:31:05.568Z,55.30
2022-12-07T05:33:45.283Z,55.70
2022-12-07T05:36:20.191Z,55.30
2022-12-07T05:38:50.657Z,55.10
2022-12-07T05:41:51.799Z,55.00
2022-12-07T05:44:23.591Z,53.70
2022-12-07T05:46:53.956Z,55.00
2022-12-07T05:49:24.413Z,55.10
2022-12-07T05:51:55.302Z,54.40
2022-12-07T05:54:25.823Z,54.40
2022-12-07T05:56:56.260Z,54.60
2022-12-07T05:59:26.923Z,54.80
2022-12-07T06:01:58.791Z,53.80
2022-12-07T06:04:33.331Z,54.30
2022-12-07T06:07:05.223Z,55.40
2022-12-07T06:09:37.689Z,55.50
2022-12-07T06:12:30.435Z,55.00
2022-12-07T06:15:02.006Z,55.70
2022-12-07T06:17:32.709Z,56.60
2022-12-07T06:20:03.664Z,56.60
2022-12-07T06:22:34.680Z,56.60
2022-12-07T06:25:08.782Z,56.80
2022-12-07T06:27:39.198Z,57.20
2022-12-07T06:30:12.532Z,57.50
2022-12-07T06:32:42.835Z,57.70
2022-12-07T06:35:13.363Z,57.80
2022-12-07T06:37:43.727Z,57.00
2022-12-07T06:40:14.333Z,58.10
2022-12-07T06:42:45.157Z,58.20
2022-12-07T06:45:18.151Z,59.70
2022-12-07T06:47:51.060Z,59.60
2022-12-07T06:50:26.221Z,58.70
2022-12-07T06:52:57.534Z,58.40
2022-12-07T06:55:30.189Z,58.50
2022-12-07T06:58:01.309Z,57.40
2022-12-07T07:00:33.923Z,56.30
2022-12-07T07:03:08.070Z,57.70
2022-12-07T07:05:39.605Z,58.00
2022-12-07T07:08:27.847Z,58.30
2022-12-07T07:10:58.647Z,57.70
2022-12-07T07:13:31.639Z,58.60
2022-12-07T07:16:04.313Z,59.10
2022-12-07T07:18:34.944Z,59.70
2022-12-07T07:21:07.960Z,60.70
2022-12-07T07:23:39.042Z,60.00
2022-12-07T07:26:12.388Z,60.10
2022-12-07T07:28:43.933Z,61.10
2022-12-07T07:31:15.201Z,61.00
2022-12-07T07:33:56.641Z,61.50
2022-12-07T07:36:28.653Z,61.40
2022-12-07T07:39:02.682Z,61.10
2022-12-07T07:41:33.465Z,61.30
2022-12-07T07:44:06.758Z,62.10
2022-12-07T07:46:37.821Z,61.90
2022-12-07T07:49:08.764Z,62.70
2022-12-07T07:51:41.098Z,62.50
2022-12-07T07:54:11.546Z,63.00
2022-12-07T07:56:42.837Z,62.70
2022-12-07T07:59:13.811Z,62.90
2022-12-07T08:01:48.070Z,62.60
2022-12-07T08:04:19.521Z,63.00
2022-12-07T08:06:50.776Z,61.90
2022-12-07T08:09:21.830Z,62.50
2022-12-07T08:11:56.251Z,61.70
2022-12-07T08:14:28.939Z,62.40
2022-12-07T08:17:05.597Z,62.30
2022-12-07T08:19:45.482Z,62.90
2022-12-07T08:22:16.484Z,62.80
2022-12-07T08:24:47.491Z,63.30
2022-12-07T08:27:19.834Z,63.20
2022-12-07T08:29:50.908Z,63.40
2022-12-07T08:32:21.766Z,63.90
2022-12-07T08:34:55.234Z,64.30
2022-12-07T08:37:25.813Z,65.00
2022-12-07T08:39:56.949Z,65.10
2022-12-07T08:42:35.888Z,65.10
2022-12-07T08:45:10.740Z,65.30
2022-12-07T08:48:03.512Z,66.40
2022-12-07T08:50:38.574Z,66.50
2022-12-07T08:53:10.385Z,67.30
2022-12-07T08:55:41.558Z,67.90
2022-12-07T08:58:12.580Z,68.50
2022-12-07T09:00:43.572Z,68.90
2022-12-07T09:03:15.614Z,69.10
2022-12-07T09:05:48.964Z,69.50
2022-12-07T09:08:20.581Z,70.00
2022-12-07T09:10:52.511Z,70.80
2022-12-07T09:13:23.277Z,71.00
2022-12-07T09:15:54.113Z,71.60
2022-12-07T09:18:24.844Z,72.10
2022-12-07T09:20:56.376Z,72.60
2022-12-07T09:23:27.327Z,73.10
2022-12-07T09:25:58.192Z,73.40
2022-12-07T09:28:35.336Z,73.80
2022-12-07T09:31:24.735Z,75.00
2022-12-07T09:34:01.244Z,77.00
2022-12-07T09:36:32.968Z,76.80
2022-12-07T09:39:07.626Z,77.40
2022-12-07T09:41:57.736Z,78.30
2022-12-07T09:44:31.663Z,79.10
2022-12-07T09:47:05.964Z,79.70
2022-12-07T09:49:37.320Z,80.30
2022-12-07T09:52:22.179Z,81.00
2022-12-07T09:54:54.317Z,81.50
2022-12-07T09:57:37.746Z,81.80
2022-12-07T10:00:21.591Z,82.30
2022-12-07T10:03:05.801Z,82.40
2022-12-07T10:05:56.769Z,83.10
2022-12-07T10:08:33.565Z,83.50
2022-12-07T10:11:09.305Z,83.80
2022-12-07T10:13:48.288Z,84.10
2022-12-07T10:16:47.308Z,84.40
2022-12-07T10:19:33.737Z,84.70
2022-12-07T10:22:13.833Z,84.90
2022-12-07T10:24:46.293Z,85.30
2022-12-07T10:27:46.220Z,85.20
2022-12-07T10:30:18.517Z,86.60
2022-12-07T10:32:49.704Z,85.80
2022-12-07T10:35:24.445Z,86.30
2022-12-07T10:37:57.887Z,86.50
2022-12-07T10:40:35.013Z,86.90
2022-12-07T10:43:10.233Z,87.10
2022-12-07T10:46:03.461Z,87.40
2022-12-07T10:48:42.484Z,88.00
2022-12-07T10:51:40.279Z,87.70
2022-12-07T10:54:18.096Z,88.20
2022-12-07T10:57:02.716Z,88.40
2022-12-07T10:59:42.540Z,88.50
2022-12-07T11:02:33.684Z,89.00
2022-12-07T11:05:29.027Z,89.00
2022-12-07T11:08:32.209Z,89.30
2022-12-07T11:11:27.039Z,89.80
2022-12-07T11:14:23.604Z,89.80
2022-12-07T11:17:18.415Z,89.80
2022-12-07T11:19:56.847Z,89.90
2022-12-07T11:23:03.170Z,90.00
2022-12-07T11:26:02.798Z,90.10
2022-12-07T11:29:10.706Z,90.10
2022-12-07T11:32:19.169Z,90.30
2022-12-07T11:35:14.032Z,90.30
2022-12-07T11:37:45.259Z,90.30
2022-12-07T11:40:39.011Z,90.30
2022-12-07T11:43:31.707Z,90.30
2022-12-07T11:46:20.599Z,90.10
2022-12-07T11:49:07.343Z,90.00
2022-12-07T11:51:40.516Z,89.90
2022-12-07T11:54:45.136Z,90.00
2022-12-07T11:57:42.186Z,90.00
2022-12-07T12:00:23.910Z,89.90
2022-12-07T12:03:26.555Z,89.80
2022-12-07T12:05:57.636Z,89.70
2022-12-07T12:15:39.061Z,90.10
2022-12-07T12:18:29.582Z,90.10
2022-12-07T12:21:20.618Z,90.20
2022-12-07T12:24:06.349Z,90.20
2022-12-07T12:26:40.965Z,90.30
2022-12-07T12:29:27.244Z,90.50
2022-12-07T12:32:24.704Z,90.50
2022-12-07T12:35:07.259Z,90.60
2022-12-07T12:37:38.252Z,90.80
2022-12-07T12:40:21.083Z,90.90
2022-12-07T12:42:56.161Z,90.90
2022-12-07T12:45:29.397Z,91.00
2022-12-07T12:48:02.515Z,91.00
2022-12-07T12:50:38.600Z,91.00
2022-12-07T12:53:28.843Z,91.10
2022-12-07T12:56:23.706Z,91.20
2022-12-07T12:59:28.194Z,91.30
2022-12-07T13:02:33.577Z,91.30
2022-12-07T13:05:26.375Z,91.40
2022-12-07T13:08:26.267Z,91.50
2022-12-07T13:11:24.196Z,91.60
2022-12-07T13:13:55.154Z,91.60
2022-12-07T13:16:25.799Z,91.70
2022-12-07T13:18:57.399Z,91.60
2022-12-07T13:21:32.751Z,91.60
2022-12-07T13:24:05.976Z,91.50
2022-12-07T13:26:46.941Z,91.40
2022-12-07T13:29:26.551Z,91.20
2022-12-07T13:32:00.011Z,91.00
2022-12-07T13:34:43.593Z,90.90
2022-12-07T13:37:18.150Z,90.70
2022-12-07T13:40:02.057Z,90.50
2022-12-07T13:42:35.786Z,90.30
2022-12-07T13:45:46.629Z,90.20
2022-12-07T13:48:39.437Z,90.10
2022-12-07T13:51:26.589Z,90.00
2022-12-07T13:54:03.157Z,89.80
2022-12-07T13:56:42.594Z,89.70
2022-12-07T13:59:42.919Z,89.20
2022-12-07T14:02:36.383Z,89.10
2022-12-07T14:05:27.405Z,88.90
2022-12-07T14:08:05.475Z,88.50
2022-12-07T14:10:37.024Z,88.40
2022-12-07T14:13:32.579Z,88.30
2022-12-07T14:16:05.666Z,88.10
2022-12-07T14:18:44.376Z,88.40
2022-12-07T14:21:15.242Z,88.20
2022-12-07T14:23:48.020Z,88.00
2022-12-07T14:26:24.117Z,87.90
2022-12-07T14:28:54.820Z,87.70
2022-12-07T14:31:30.803Z,87.70
2022-12-07T14:34:06.009Z,88.00
2022-12-07T14:36:36.701Z,88.00
2022-12-07T14:39:13.059Z,87.90
2022-12-07T14:41:56.010Z,87.60
2022-12-07T14:44:32.448Z,88.00
2022-12-07T14:49:58.151Z,87.40
2022-12-07T14:55:32.326Z,86.90
2022-12-07T14:58:03.474Z,87.00
2022-12-07T15:00:34.204Z,86.40
2022-12-07T15:03:05.017Z,85.20
2022-12-07T15:05:38.316Z,85.30
2022-12-07T15:08:10.318Z,84.80
2022-12-07T15:10:41.839Z,84.40
2022-12-07T15:13:30.302Z,83.50
2022-12-07T15:16:01.325Z,83.40
2022-12-07T15:18:32.040Z,83.30
2022-12-07T15:21:02.754Z,82.80
2022-12-07T15:23:34.541Z,82.30
2022-12-07T15:26:05.237Z,80.30
2022-12-07T15:28:37.364Z,79.40
2022-12-07T15:31:39.122Z,80.40
2022-12-07T15:34:06.045Z,78.70
2022-12-07T15:36:38.747Z,78.00
2022-12-07T15:39:16.109Z,77.40
2022-12-07T15:41:46.862Z,76.20
2022-12-07T15:44:35.956Z,75.70
2022-12-07T15:47:07.405Z,75.20
2022-12-07T15:49:37.915Z,75.50
2022-12-07T15:52:08.384Z,75.60
2022-12-07T15:54:39.536Z,74.80
2022-12-07T15:57:11.276Z,74.20
2022-12-07T15:59:42.023Z,75.20
2022-12-07T16:02:14.181Z,75.00
2022-12-07T16:04:44.672Z,75.50
2022-12-07T16:07:18.650Z,74.10
2022-12-07T16:09:51.005Z,74.80
2022-12-07T16:12:21.866Z,73.50
2022-12-07T16:14:52.717Z,73.50
2022-12-07T16:17:23.547Z,73.50
2022-12-07T16:19:54.537Z,73.70
2022-12-07T16:22:25.571Z,70.70
2022-12-07T16:24:56.303Z,71.60
2022-12-07T16:27:26.956Z,71.50
2022-12-07T16:29:57.702Z,71.50
2022-12-07T16:32:28.662Z,72.90
2022-12-07T16:35:00.949Z,70.70
2022-12-07T16:37:32.050Z,71.70
2022-12-07T16:40:03.007Z,69.70
2022-12-07T16:42:38.896Z,68.40
2022-12-07T16:45:11.397Z,69.50
2022-12-07T16:47:44.599Z,69.70
2022-12-07T16:50:15.062Z,69.10
2022-12-07T16:52:46.745Z,67.40
2022-12-07T16:55:18.451Z,68.90
2022-12-07T16:57:49.414Z,69.80
2022-12-07T17:00:20.652Z,66.80
2022-12-07T17:02:51.652Z,68.70
2022-12-07T17:05:23.041Z,67.40
2022-12-07T17:07:54.513Z,66.60
2022-12-07T17:10:25.085Z,66.60
2022-12-07T17:12:56.114Z,66.00
2022-12-07T17:15:27.336Z,66.20
2022-12-07T17:18:01.322Z,67.20
2022-12-07T17:20:31.664Z,66.70
2022-12-07T17:23:01.895Z,66.50
2022-12-07T17:25:35.213Z,66.60
2022-12-07T17:28:05.939Z,67.50
2022-12-07T17:30:36.877Z,67.00
2022-12-07T17:33:08.517Z,67.30
2022-12-07T17:35:39.400Z,66.60
2022-12-07T17:38:12.339Z,67.50
2022-12-07T17:40:43.313Z,67.20
2022-12-07T17:43:15.220Z,67.40
2022-12-07T17:45:47.154Z,67.20
2022-12-07T17:48:17.421Z,67.80
2022-12-07T17:51:19.434Z,67.40
2022-12-07T17:53:53.787Z,66.70
2022-12-07T17:56:29.015Z,67.10
2022-12-07T17:59:00.473Z,67.10
2022-12-07T18:01:34.601Z,67.10
2022-12-07T18:04:07.023Z,67.50
2022-12-07T18:06:38.620Z,67.20
2022-12-07T18:09:10.293Z,67.90
2022-12-07T18:11:41.454Z,67.40
2022-12-07T18:14:12.179Z,67.60
2022-12-07T18:16:43.380Z,68.60
2022-12-07T18:19:16.222Z,67.90
2022-12-07T18:21:47.231Z,67.90
2022-12-07T18:24:19.202Z,68.30
2022-12-07T18:26:49.885Z,68.50
2022-12-07T18:29:21.618Z,68.90
2022-12-07T18:31:52.455Z,69.40
2022-12-07T18:34:24.431Z,68.20
2022-12-07T18:36:55.126Z,68.80
2022-12-07T18:39:31.578Z,68.70
2022-12-07T18:42:06.234Z,68.80
2022-12-07T18:44:38.138Z,69.20
2022-12-07T18:47:09.756Z,68.60
2022-12-07T18:49:41.190Z,69.30
2022-12-07T18:52:12.055Z,68.90
2022-12-07T18:54:44.162Z,67.90
2022-12-07T18:57:15.079Z,67.90
2022-12-07T18:59:48.391Z,68.90
2022-12-07T19:02:20.624Z,68.40
2022-12-07T19:04:50.931Z,67.20
2022-12-07T19:07:21.317Z,68.10
2022-12-07T19:09:51.643Z,68.60
2022-12-07T19:12:23.353Z,68.60
2022-12-07T19:14:53.724Z,68.30
2022-12-07T19:17:24.412Z,67.90
2022-12-07T19:19:54.871Z,68.70
2022-12-07T19:22:26.066Z,68.50
2022-12-07T19:24:59.231Z,68.70
2022-12-07T19:27:29.830Z,69.60
2022-12-07T19:30:00.970Z,69.80
2022-12-07T19:32:32.270Z,70.10
2022-12-07T19:35:02.842Z,70.00
2022-12-07T19:37:33.640Z,70.70
2022-12-07T19:40:03.880Z,70.10
2022-12-07T19:42:37.215Z,69.70
2022-12-07T19:45:07.948Z,70.00
2022-12-07T19:47:39.496Z,69.90
2022-12-07T19:50:11.067Z,69.90
2022-12-07T19:52:42.550Z,70.10
2022-12-07T19:55:13.288Z,70.10
2022-12-07T19:57:45.259Z,70.40
2022-12-07T20:00:16.797Z,70.30
2022-12-07T20:02:47.761Z,69.90
2022-12-07T20:05:18.512Z,70.20
2022-12-07T20:07:50.731Z,69.80
2022-12-07T20:10:25.939Z,70.60
2022-12-07T20:13:33.949Z,69.70
2022-12-07T20:16:19.280Z,70.40
2022-12-07T20:18:57.377Z,70.60
2022-12-07T20:21:28.319Z,69.90
2022-12-07T20:23:59.284Z,69.00
2022-12-07T20:26:30.072Z,70.40
2022-12-07T20:29:06.098Z,70.10
2022-12-07T20:31:39.763Z,70.90
2022-12-07T20:34:10.698Z,70.70
2022-12-07T20:36:42.203Z,70.20
2022-12-07T20:39:12.716Z,70.30
2022-12-07T20:42:01.133Z,69.70
2022-12-07T20:44:31.580Z,71.10
2022-12-07T20:47:02.237Z,71.20
2022-12-07T20:49:37.583Z,71.10
2022-12-07T20:52:08.422Z,70.00
2022-12-07T20:54:39.368Z,70.40
2022-12-07T20:57:10.255Z,71.20
2022-12-07T20:59:41.874Z,70.40
2022-12-07T21:02:16.657Z,71.00
2022-12-07T21:04:47.763Z,71.20
2022-12-07T21:07:18.479Z,70.60
2022-12-07T21:09:55.952Z,69.90
2022-12-07T21:12:27.977Z,70.50
2022-12-07T21:14:59.325Z,70.80
2022-12-07T21:17:29.625Z,69.70
2022-12-07T21:20:04.636Z,69.20
2022-12-07T21:22:34.905Z,68.80
2022-12-07T21:25:05.574Z,67.30
2022-12-07T21:27:37.504Z,67.00
2022-12-07T21:30:09.897Z,66.90
2022-12-07T21:32:41.816Z,67.40
2022-12-07T21:35:13.328Z,66.10
2022-12-07T21:37:45.193Z,67.60
2022-12-07T21:40:17.158Z,65.30
2022-12-07T21:42:47.978Z,63.80
2022-12-07T21:45:18.801Z,63.10
2022-12-07T21:47:49.607Z,63.70
2022-12-07T21:50:20.552Z,63.40
2022-12-07T21:52:52.441Z,62.90
2022-12-07T21:55:23.297Z,62.00
2022-12-07T21:57:57.878Z,60.90
2022-12-07T22:00:30.129Z,60.90
2022-12-07T22:03:00.427Z,62.00
2022-12-07T22:05:30.795Z,59.20
2022-12-07T22:08:01.095Z,59.30
2022-12-07T22:10:31.506Z,59.60
2022-12-07T22:13:02.410Z,60.10
2022-12-07T22:15:32.684Z,60.00
2022-12-07T22:18:04.461Z,58.90
2022-12-07T22:20:36.268Z,55.80
2022-12-07T22:23:06.898Z,56.60
2022-12-07T22:25:42.907Z,56.70
2022-12-07T22:28:14.835Z,54.40
2022-12-07T22:30:49.058Z,55.10
2022-12-07T22:33:19.368Z,55.80
2022-12-07T22:35:55.324Z,56.00
2022-12-07T22:38:34.796Z,55.40
2022-12-07T22:41:12.674Z,56.50
2022-12-07T22:43:43.840Z,55.30
2022-12-07T22:46:15.190Z,54.00
2022-12-07T22:48:46.250Z,55.20
2022-12-07T22:51:28.870Z,55.30
2022-12-07T22:54:02.753Z,54.90
2022-12-07T22:56:38.020Z,55.90
2022-12-07T22:59:10.724Z,56.60
2022-12-07T23:01:41.014Z,55.90
2022-12-07T23:04:11.808Z,55.50
2022-12-07T23:06:42.755Z,55.10
2022-12-07T23:09:16.197Z,53.90
2022-12-07T23:12:05.693Z,55.00
2022-12-07T23:14:38.946Z,53.30
2022-12-07T23:17:09.310Z,51.60
2022-12-07T23:19:41.932Z,49.20
2022-12-07T23:22:12.529Z,49.90
2022-12-07T23:24:43.176Z,52.50
2022-12-07T23:27:16.713Z,50.00
2022-12-07T23:29:48.612Z,50.50
2022-12-07T23:32:19.325Z,49.00
2022-12-07T23:34:50.791Z,49.10
2022-12-07T23:37:21.175Z,47.90
2022-12-07T23:39:51.373Z,49.50
2022-12-07T23:42:21.898Z,46.90
2022-12-07T23:44:53.332Z,46.20
2022-12-07T23:47:23.654Z,48.00
2022-12-07T23:49:53.994Z,48.20
2022-12-07T23:52:24.291Z,48.70
2022-12-07T23:54:54.509Z,48.00
2022-12-07T23:57:24.872Z,49.20
2022-12-07T23:59:55.613Z,47.40
